Terminal Aerodrome Forecast
Issued by NWS

Home | Current Version | Previous Version | Text Only | Print | Product List | Glossary On
Versions: 1 2 3 4 5 6 7 8 9 10 11 12 13 14 15 16 17 18 19 20 21 22 23 24 25 26 27
000
FTUS42 KCAE 202333
TAFOGB
TAF
KOGB 202333Z 2100/2124 20004KT P6SM SCT250
     FM210700 VRB03KT 4SM BR OVC015
     FM211000 VRB03KT 1SM BR OVC004
      TEMPO 2112/2116 1/2SM SHRA FG
     FM211600 VRB04KT 3SM -SHRA BR SCT004 OVC008=

USA.gov is the U.S. government's official web portal to all federal, state and local government web resources and services.